sensor_id;sensor_type;location;lat;lon;timestamp;temperature;humidity
8424;DHT22;4249;49.072;9.770;2022-10-22T00:01:16;14.10;1.00
8424;DHT22;4249;49.072;9.770;2022-10-22T00:04:05;14.10;1.00
8424;DHT22;4249;49.072;9.770;2022-10-22T00:06:52;14.10;1.00
8424;DHT22;4249;49.072;9.770;2022-10-22T00:09:40;14.10;1.00
8424;DHT22;4249;49.072;9.770;2022-10-22T00:12:27;14.00;1.00
8424;DHT22;4249;49.072;9.770;2022-10-22T00:15:16;13.90;1.00
8424;DHT22;4249;49.072;9.770;2022-10-22T00:18:04;13.90;1.00
8424;DHT22;4249;49.072;9.770;2022-10-22T00:20:51;13.90;1.00
8424;DHT22;4249;49.072;9.770;2022-10-22T00:23:39;13.80;1.00
8424;DHT22;4249;49.072;9.770;2022-10-22T00:26:27;13.80;1.00
8424;DHT22;4249;49.072;9.770;2022-10-22T00:29:14;13.80;1.00
8424;DHT22;4249;49.072;9.770;2022-10-22T00:32:05;13.70;1.00
8424;DHT22;4249;49.072;9.770;2022-10-22T00:34:52;13.80;1.00
8424;DHT22;4249;49.072;9.770;2022-10-22T00:37:39;13.70;1.00
8424;DHT22;4249;49.072;9.770;2022-10-22T00:40:26;13.60;1.00
8424;DHT22;4249;49.072;9.770;2022-10-22T00:43:16;13.60;1.00
8424;DHT22;4249;49.072;9.770;2022-10-22T00:46:03;13.60;1.00
8424;DHT22;4249;49.072;9.770;2022-10-22T00:48:52;13.60;1.00
8424;DHT22;4249;49.072;9.770;2022-10-22T00:51:40;13.60;1.00
8424;DHT22;4249;49.072;9.770;2022-10-22T00:54:27;13.60;1.00
8424;DHT22;4249;49.072;9.770;2022-10-22T00:57:15;13.60;1.00
8424;DHT22;4249;49.072;9.770;2022-10-22T01:00:05;13.50;1.00
8424;DHT22;4249;49.072;9.770;2022-10-22T01:02:53;13.50;1.00
8424;DHT22;4249;49.072;9.770;2022-10-22T01:05:43;13.60;1.00
8424;DHT22;4249;49.072;9.770;2022-10-22T01:08:42;13.50;1.00
8424;DHT22;4249;49.072;9.770;2022-10-22T01:11:40;13.50;1.00
8424;DHT22;4249;49.072;9.770;2022-10-22T01:14:33;13.50;1.00
8424;DHT22;4249;49.072;9.770;2022-10-22T01:17:26;13.50;1.00
8424;DHT22;4249;49.072;9.770;2022-10-22T01:20:37;13.50;1.00
8424;DHT22;4249;49.072;9.770;2022-10-22T01:27:02;13.40;1.00
8424;DHT22;4249;49.072;9.770;2022-10-22T01:29:58;13.30;1.00
8424;DHT22;4249;49.072;9.770;2022-10-22T01:32:49;13.30;1.00
8424;DHT22;4249;49.072;9.770;2022-10-22T01:35:39;13.30;1.00
8424;DHT22;4249;49.072;9.770;2022-10-22T01:38:28;13.20;1.00
8424;DHT22;4249;49.072;9.770;2022-10-22T01:41:16;13.30;1.00
8424;DHT22;4249;49.072;9.770;2022-10-22T01:44:04;13.30;1.00
8424;DHT22;4249;49.072;9.770;2022-10-22T01:46:59;13.30;1.00
8424;DHT22;4249;49.072;9.770;2022-10-22T01:50:08;13.20;1.00
8424;DHT22;4249;49.072;9.770;2022-10-22T01:53:20;13.30;1.00
8424;DHT22;4249;49.072;9.770;2022-10-22T01:56:27;13.20;1.00
8424;DHT22;4249;49.072;9.770;2022-10-22T01:59:23;13.20;1.00
8424;DHT22;4249;49.072;9.770;2022-10-22T02:02:33;13.20;1.00
8424;DHT22;4249;49.072;9.770;2022-10-22T02:05:27;13.20;1.00
8424;DHT22;4249;49.072;9.770;2022-10-22T02:08:19;13.10;1.00
8424;DHT22;4249;49.072;9.770;2022-10-22T02:11:07;13.10;1.00
8424;DHT22;4249;49.072;9.770;2022-10-22T02:13:58;13.10;1.00
8424;DHT22;4249;49.072;9.770;2022-10-22T02:16:48;13.00;1.00
8424;DHT22;4249;49.072;9.770;2022-10-22T02:19:40;13.10;1.00
8424;DHT22;4249;49.072;9.770;2022-10-22T02:22:30;13.10;1.00
8424;DHT22;4249;49.072;9.770;2022-10-22T02:25:19;13.10;1.00
8424;DHT22;4249;49.072;9.770;2022-10-22T02:28:12;13.00;1.00
8424;DHT22;4249;49.072;9.770;2022-10-22T02:31:05;13.00;1.00
8424;DHT22;4249;49.072;9.770;2022-10-22T02:34:00;13.00;1.00
8424;DHT22;4249;49.072;9.770;2022-10-22T02:36:51;13.00;1.00
8424;DHT22;4249;49.072;9.770;2022-10-22T02:39:39;12.90;1.00
8424;DHT22;4249;49.072;9.770;2022-10-22T02:42:27;12.80;1.00
8424;DHT22;4249;49.072;9.770;2022-10-22T02:45:15;12.80;1.00
8424;DHT22;4249;49.072;9.770;2022-10-22T02:48:03;12.80;1.00
8424;DHT22;4249;49.072;9.770;2022-10-22T02:50:51;12.80;1.00
8424;DHT22;4249;49.072;9.770;2022-10-22T02:53:39;12.80;1.00
8424;DHT22;4249;49.072;9.770;2022-10-22T02:56:26;12.80;1.00
8424;DHT22;4249;49.072;9.770;2022-10-22T02:59:13;12.80;1.00
8424;DHT22;4249;49.072;9.770;2022-10-22T03:02:00;12.70;1.00
8424;DHT22;4249;49.072;9.770;2022-10-22T03:04:48;12.60;1.00
8424;DHT22;4249;49.072;9.770;2022-10-22T03:07:35;12.60;1.00
8424;DHT22;4249;49.072;9.770;2022-10-22T03:10:24;12.50;1.00
8424;DHT22;4249;49.072;9.770;2022-10-22T03:13:11;12.50;1.00
8424;DHT22;4249;49.072;9.770;2022-10-22T03:15:58;12.60;1.00
8424;DHT22;4249;49.072;9.770;2022-10-22T03:18:46;12.50;1.00
8424;DHT22;4249;49.072;9.770;2022-10-22T03:21:37;12.60;1.00
8424;DHT22;4249;49.072;9.770;2022-10-22T03:24:27;12.60;1.00
8424;DHT22;4249;49.072;9.770;2022-10-22T03:27:19;12.60;1.00
8424;DHT22;4249;49.072;9.770;2022-10-22T03:30:08;12.70;1.00
8424;DHT22;4249;49.072;9.770;2022-10-22T03:32:56;12.70;1.00
8424;DHT22;4249;49.072;9.770;2022-10-22T03:35:44;12.70;1.00
8424;DHT22;4249;49.072;9.770;2022-10-22T03:38:33;12.70;1.00
8424;DHT22;4249;49.072;9.770;2022-10-22T03:41:21;12.70;1.00
8424;DHT22;4249;49.072;9.770;2022-10-22T03:44:09;12.70;1.00
8424;DHT22;4249;49.072;9.770;2022-10-22T03:46:57;12.80;1.00
8424;DHT22;4249;49.072;9.770;2022-10-22T03:49:44;12.80;1.00
8424;DHT22;4249;49.072;9.770;2022-10-22T03:52:35;12.70;1.00
8424;DHT22;4249;49.072;9.770;2022-10-22T03:55:22;12.70;1.00
8424;DHT22;4249;49.072;9.770;2022-10-22T03:58:10;12.70;1.00
8424;DHT22;4249;49.072;9.770;2022-10-22T04:01:03;12.80;1.00
8424;DHT22;4249;49.072;9.770;2022-10-22T04:03:50;12.80;1.00
8424;DHT22;4249;49.072;9.770;2022-10-22T04:06:37;12.80;1.00
8424;DHT22;4249;49.072;9.770;2022-10-22T04:09:25;12.80;1.00
8424;DHT22;4249;49.072;9.770;2022-10-22T04:12:12;12.80;1.00
8424;DHT22;4249;49.072;9.770;2022-10-22T04:14:59;12.80;1.00
8424;DHT22;4249;49.072;9.770;2022-10-22T04:17:47;12.80;1.00
8424;DHT22;4249;49.072;9.770;2022-10-22T04:20:35;12.90;1.00
8424;DHT22;4249;49.072;9.770;2022-10-22T04:23:22;13.00;1.00
8424;DHT22;4249;49.072;9.770;2022-10-22T04:26:09;13.00;1.00
8424;DHT22;4249;49.072;9.770;2022-10-22T04:28:56;12.90;1.00
8424;DHT22;4249;49.072;9.770;2022-10-22T04:31:43;12.80;1.00
8424;DHT22;4249;49.072;9.770;2022-10-22T04:34:32;12.80;1.00
8424;DHT22;4249;49.072;9.770;2022-10-22T04:37:19;12.80;1.00
8424;DHT22;4249;49.072;9.770;2022-10-22T04:40:08;12.80;1.00
8424;DHT22;4249;49.072;9.770;2022-10-22T04:42:55;12.80;1.00
8424;DHT22;4249;49.072;9.770;2022-10-22T04:45:43;12.90;1.00
8424;DHT22;4249;49.072;9.770;2022-10-22T04:48:30;12.90;1.00
8424;DHT22;4249;49.072;9.770;2022-10-22T04:51:20;12.80;1.00
8424;DHT22;4249;49.072;9.770;2022-10-22T04:54:07;12.80;1.00
8424;DHT22;4249;49.072;9.770;2022-10-22T04:56:54;12.80;1.00
8424;DHT22;4249;49.072;9.770;2022-10-22T04:59:41;12.80;1.00
8424;DHT22;4249;49.072;9.770;2022-10-22T05:02:29;12.70;1.00
8424;DHT22;4249;49.072;9.770;2022-10-22T05:05:16;12.60;1.00
8424;DHT22;4249;49.072;9.770;2022-10-22T05:08:04;12.60;1.00
8424;DHT22;4249;49.072;9.770;2022-10-22T05:10:52;12.60;1.00
8424;DHT22;4249;49.072;9.770;2022-10-22T05:13:39;12.70;1.00
8424;DHT22;4249;49.072;9.770;2022-10-22T05:16:27;12.70;1.00
8424;DHT22;4249;49.072;9.770;2022-10-22T05:19:17;12.60;1.00
8424;DHT22;4249;49.072;9.770;2022-10-22T05:22:04;12.50;1.00
8424;DHT22;4249;49.072;9.770;2022-10-22T05:24:53;12.50;1.00
8424;DHT22;4249;49.072;9.770;2022-10-22T05:27:40;12.50;1.00
8424;DHT22;4249;49.072;9.770;2022-10-22T05:30:27;12.40;1.00
8424;DHT22;4249;49.072;9.770;2022-10-22T05:33:14;12.30;1.00
8424;DHT22;4249;49.072;9.770;2022-10-22T05:36:03;12.20;1.00
8424;DHT22;4249;49.072;9.770;2022-10-22T05:38:51;12.20;1.00
8424;DHT22;4249;49.072;9.770;2022-10-22T05:41:40;12.10;1.00
8424;DHT22;4249;49.072;9.770;2022-10-22T05:44:27;12.10;1.00
8424;DHT22;4249;49.072;9.770;2022-10-22T05:47:14;12.10;1.00
8424;DHT22;4249;49.072;9.770;2022-10-22T05:50:01;12.00;1.00
8424;DHT22;4249;49.072;9.770;2022-10-22T05:52:49;12.00;1.00
8424;DHT22;4249;49.072;9.770;2022-10-22T05:55:36;12.00;1.00
8424;DHT22;4249;49.072;9.770;2022-10-22T05:58:26;12.00;1.00
8424;DHT22;4249;49.072;9.770;2022-10-22T06:01:16;12.00;1.00
8424;DHT22;4249;49.072;9.770;2022-10-22T06:04:06;12.00;1.00
8424;DHT22;4249;49.072;9.770;2022-10-22T06:06:53;12.00;1.00
8424;DHT22;4249;49.072;9.770;2022-10-22T06:09:41;11.90;1.00
8424;DHT22;4249;49.072;9.770;2022-10-22T06:12:28;11.90;1.00
8424;DHT22;4249;49.072;9.770;2022-10-22T06:15:17;11.90;1.00
8424;DHT22;4249;49.072;9.770;2022-10-22T06:18:05;11.80;1.00
8424;DHT22;4249;49.072;9.770;2022-10-22T06:20:52;11.70;1.00
8424;DHT22;4249;49.072;9.770;2022-10-22T06:23:40;11.70;1.00
8424;DHT22;4249;49.072;9.770;2022-10-22T06:26:27;11.70;1.00
8424;DHT22;4249;49.072;9.770;2022-10-22T06:29:15;11.80;1.00
8424;DHT22;4249;49.072;9.770;2022-10-22T06:32:04;11.80;1.00
8424;DHT22;4249;49.072;9.770;2022-10-22T06:34:52;12.00;1.00
8424;DHT22;4249;49.072;9.770;2022-10-22T06:37:39;12.10;1.00
8424;DHT22;4249;49.072;9.770;2022-10-22T06:40:26;12.10;1.00
8424;DHT22;4249;49.072;9.770;2022-10-22T06:43:14;12.20;1.00
8424;DHT22;4249;49.072;9.770;2022-10-22T06:46:04;12.30;1.00
8424;DHT22;4249;49.072;9.770;2022-10-22T06:48:55;12.40;1.00
8424;DHT22;4249;49.072;9.770;2022-10-22T06:51:43;12.40;1.00
8424;DHT22;4249;49.072;9.770;2022-10-22T06:54:30;12.50;1.00
8424;DHT22;4249;49.072;9.770;2022-10-22T06:57:17;12.60;1.00
8424;DHT22;4249;49.072;9.770;2022-10-22T07:00:06;12.70;1.00
8424;DHT22;4249;49.072;9.770;2022-10-22T07:02:53;12.70;1.00
8424;DHT22;4249;49.072;9.770;2022-10-22T07:05:42;12.80;1.00
8424;DHT22;4249;49.072;9.770;2022-10-22T07:08:29;13.00;1.00
8424;DHT22;4249;49.072;9.770;2022-10-22T07:11:17;13.10;1.00
8424;DHT22;4249;49.072;9.770;2022-10-22T07:14:05;13.20;1.00
8424;DHT22;4249;49.072;9.770;2022-10-22T07:16:52;13.30;1.00
8424;DHT22;4249;49.072;9.770;2022-10-22T07:19:39;13.30;1.00
8424;DHT22;4249;49.072;9.770;2022-10-22T07:22:27;13.40;1.00
8424;DHT22;4249;49.072;9.770;2022-10-22T07:25:15;13.40;1.00
8424;DHT22;4249;49.072;9.770;2022-10-22T07:28:02;13.60;1.00
8424;DHT22;4249;49.072;9.770;2022-10-22T07:30:49;13.80;1.00
8424;DHT22;4249;49.072;9.770;2022-10-22T07:33:37;13.90;1.00
8424;DHT22;4249;49.072;9.770;2022-10-22T07:36:24;13.90;1.00
8424;DHT22;4249;49.072;9.770;2022-10-22T07:39:13;14.10;1.00
8424;DHT22;4249;49.072;9.770;2022-10-22T07:42:00;14.30;1.00
8424;DHT22;4249;49.072;9.770;2022-10-22T07:44:47;14.50;1.00
8424;DHT22;4249;49.072;9.770;2022-10-22T07:47:34;14.60;99.90
8424;DHT22;4249;49.072;9.770;2022-10-22T07:50:22;14.70;99.90
8424;DHT22;4249;49.072;9.770;2022-10-22T07:53:09;14.80;20.80
8424;DHT22;4249;49.072;9.770;2022-10-22T07:55:57;14.90;22.70
8424;DHT22;4249;49.072;9.770;2022-10-22T07:58:44;15.00;99.90
8424;DHT22;4249;49.072;9.770;2022-10-22T08:01:32;15.10;1.00
8424;DHT22;4249;49.072;9.770;2022-10-22T08:04:19;15.30;1.00
8424;DHT22;4249;49.072;9.770;2022-10-22T08:07:06;15.40;1.00
8424;DHT22;4249;49.072;9.770;2022-10-22T08:09:53;15.30;99.90
8424;DHT22;4249;49.072;9.770;2022-10-22T08:12:42;15.10;1.00
8424;DHT22;4249;49.072;9.770;2022-10-22T08:15:29;15.10;1.00
8424;DHT22;4249;49.072;9.770;2022-10-22T08:18:16;15.00;1.00
8424;DHT22;4249;49.072;9.770;2022-10-22T08:21:04;15.00;99.90
8424;DHT22;4249;49.072;9.770;2022-10-22T08:23:51;14.90;99.90
8424;DHT22;4249;49.072;9.770;2022-10-22T08:26:38;14.90;94.80
8424;DHT22;4249;49.072;9.770;2022-10-22T08:29:27;14.90;99.90
8424;DHT22;4249;49.072;9.770;2022-10-22T08:32:14;15.10;1.00
8424;DHT22;4249;49.072;9.770;2022-10-22T08:35:01;15.30;1.00
8424;DHT22;4249;49.072;9.770;2022-10-22T08:37:49;15.60;1.00
8424;DHT22;4249;49.072;9.770;2022-10-22T08:40:38;15.70;99.90
8424;DHT22;4249;49.072;9.770;2022-10-22T08:43:54;15.90;1.00
8424;DHT22;4249;49.072;9.770;2022-10-22T08:47:01;16.00;1.00
8424;DHT22;4249;49.072;9.770;2022-10-22T08:49:52;16.20;99.90
8424;DHT22;4249;49.072;9.770;2022-10-22T08:52:43;16.20;1.00
8424;DHT22;4249;49.072;9.770;2022-10-22T08:55:32;16.40;1.00
8424;DHT22;4249;49.072;9.770;2022-10-22T08:58:24;16.40;1.00
8424;DHT22;4249;49.072;9.770;2022-10-22T09:01:19;16.40;76.90
8424;DHT22;4249;49.072;9.770;2022-10-22T09:04:15;16.40;1.00
8424;DHT22;4249;49.072;9.770;2022-10-22T09:07:04;16.10;1.00
8424;DHT22;4249;49.072;9.770;2022-10-22T09:09:53;16.10;1.00
8424;DHT22;4249;49.072;9.770;2022-10-22T09:12:41;16.10;99.90
8424;DHT22;4249;49.072;9.770;2022-10-22T09:15:28;16.10;1.00
8424;DHT22;4249;49.072;9.770;2022-10-22T09:18:24;16.10;1.00
8424;DHT22;4249;49.072;9.770;2022-10-22T09:21:25;16.20;1.00
8424;DHT22;4249;49.072;9.770;2022-10-22T09:24:28;16.20;99.90
8424;DHT22;4249;49.072;9.770;2022-10-22T09:27:24;16.20;1.00
8424;DHT22;4249;49.072;9.770;2022-10-22T09:30:12;16.30;99.90
8424;DHT22;4249;49.072;9.770;2022-10-22T09:32:40;16.40;1.00
8424;DHT22;4249;49.072;9.770;2022-10-22T09:35:09;16.50;1.00
8424;DHT22;4249;49.072;9.770;2022-10-22T09:37:47;16.70;99.90
8424;DHT22;4249;49.072;9.770;2022-10-22T09:40:14;16.70;1.00
8424;DHT22;4249;49.072;9.770;2022-10-22T09:42:43;16.80;99.90
8424;DHT22;4249;49.072;9.770;2022-10-22T09:45:16;17.00;99.90
8424;DHT22;4249;49.072;9.770;2022-10-22T09:47:44;17.10;1.00
8424;DHT22;4249;49.072;9.770;2022-10-22T09:50:19;17.10;62.70
8424;DHT22;4249;49.072;9.770;2022-10-22T09:52:54;17.20;99.90
8424;DHT22;4249;49.072;9.770;2022-10-22T09:55:24;17.30;1.00
8424;DHT22;4249;49.072;9.770;2022-10-22T09:57:52;17.40;1.00
8424;DHT22;4249;49.072;9.770;2022-10-22T10:00:20;17.50;1.00
8424;DHT22;4249;49.072;9.770;2022-10-22T10:02:53;17.60;1.00
8424;DHT22;4249;49.072;9.770;2022-10-22T10:05:26;17.70;1.00
8424;DHT22;4249;49.072;9.770;2022-10-22T10:07:54;17.70;1.00
8424;DHT22;4249;49.072;9.770;2022-10-22T10:10:28;17.60;1.00
8424;DHT22;4249;49.072;9.770;2022-10-22T10:13:06;17.50;1.00
8424;DHT22;4249;49.072;9.770;2022-10-22T10:15:39;17.50;1.00
8424;DHT22;4249;49.072;9.770;2022-10-22T10:18:20;17.40;99.90
8424;DHT22;4249;49.072;9.770;2022-10-22T10:20:55;17.50;1.00
8424;DHT22;4249;49.072;9.770;2022-10-22T10:23:30;17.60;1.00
8424;DHT22;4249;49.072;9.770;2022-10-22T10:26:03;17.70;1.00
8424;DHT22;4249;49.072;9.770;2022-10-22T10:28:49;17.60;99.90
8424;DHT22;4249;49.072;9.770;2022-10-22T10:31:28;17.60;99.90
8424;DHT22;4249;49.072;9.770;2022-10-22T10:34:06;17.80;99.90
8424;DHT22;4249;49.072;9.770;2022-10-22T10:36:39;17.80;99.90
8424;DHT22;4249;49.072;9.770;2022-10-22T10:39:12;17.80;99.90
8424;DHT22;4249;49.072;9.770;2022-10-22T10:41:48;17.80;1.00
8424;DHT22;4249;49.072;9.770;2022-10-22T10:44:45;17.80;1.00
8424;DHT22;4249;49.072;9.770;2022-10-22T10:48:03;17.80;1.00
8424;DHT22;4249;49.072;9.770;2022-10-22T10:51:02;17.80;1.00
8424;DHT22;4249;49.072;9.770;2022-10-22T10:53:59;17.90;89.40
8424;DHT22;4249;49.072;9.770;2022-10-22T10:56:54;18.00;99.90
8424;DHT22;4249;49.072;9.770;2022-10-22T10:59:53;18.00;99.90
8424;DHT22;4249;49.072;9.770;2022-10-22T11:03:12;18.00;99.90
8424;DHT22;4249;49.072;9.770;2022-10-22T11:06:09;17.90;99.90
8424;DHT22;4249;49.072;9.770;2022-10-22T11:09:01;17.80;99.90
8424;DHT22;4249;49.072;9.770;2022-10-22T11:11:54;17.90;99.90
8424;DHT22;4249;49.072;9.770;2022-10-22T11:14:51;17.90;99.90
8424;DHT22;4249;49.072;9.770;2022-10-22T11:17:44;17.80;99.90
8424;DHT22;4249;49.072;9.770;2022-10-22T11:20:40;17.60;99.90
8424;DHT22;4249;49.072;9.770;2022-10-22T11:23:35;17.60;99.90
8424;DHT22;4249;49.072;9.770;2022-10-22T11:26:34;17.60;99.90
8424;DHT22;4249;49.072;9.770;2022-10-22T11:29:27;17.70;99.90
8424;DHT22;4249;49.072;9.770;2022-10-22T11:32:17;17.90;99.90
8424;DHT22;4249;49.072;9.770;2022-10-22T11:35:10;17.70;99.90
8424;DHT22;4249;49.072;9.770;2022-10-22T11:37:59;17.60;99.90
8424;DHT22;4249;49.072;9.770;2022-10-22T11:40:53;17.60;99.90
8424;DHT22;4249;49.072;9.770;2022-10-22T11:44:04;17.80;99.90
8424;DHT22;4249;49.072;9.770;2022-10-22T11:46:56;17.90;99.90
8424;DHT22;4249;49.072;9.770;2022-10-22T11:49:45;18.10;99.90
8424;DHT22;4249;49.072;9.770;2022-10-22T11:52:48;18.20;99.90
8424;DHT22;4249;49.072;9.770;2022-10-22T11:55:43;18.20;99.90
8424;DHT22;4249;49.072;9.770;2022-10-22T11:58:38;18.30;99.90
8424;DHT22;4249;49.072;9.770;2022-10-22T12:01:29;18.40;99.90
8424;DHT22;4249;49.072;9.770;2022-10-22T12:04:46;18.40;99.90
8424;DHT22;4249;49.072;9.770;2022-10-22T12:07:46;18.30;99.90
8424;DHT22;4249;49.072;9.770;2022-10-22T12:10:50;18.30;99.90
8424;DHT22;4249;49.072;9.770;2022-10-22T12:17:03;18.40;99.90
8424;DHT22;4249;49.072;9.770;2022-10-22T12:19:59;18.40;99.90
8424;DHT22;4249;49.072;9.770;2022-10-22T12:22:47;18.50;99.90
8424;DHT22;4249;49.072;9.770;2022-10-22T12:25:34;18.50;99.90
8424;DHT22;4249;49.072;9.770;2022-10-22T12:28:23;18.50;99.90
8424;DHT22;4249;49.072;9.770;2022-10-22T12:31:14;18.40;99.90
8424;DHT22;4249;49.072;9.770;2022-10-22T12:34:02;18.30;99.90
8424;DHT22;4249;49.072;9.770;2022-10-22T12:36:52;18.10;99.90
8424;DHT22;4249;49.072;9.770;2022-10-22T12:39:39;18.00;99.90
8424;DHT22;4249;49.072;9.770;2022-10-22T12:42:26;17.90;99.90
8424;DHT22;4249;49.072;9.770;2022-10-22T12:45:14;17.80;99.90
8424;DHT22;4249;49.072;9.770;2022-10-22T12:48:04;17.70;99.90
8424;DHT22;4249;49.072;9.770;2022-10-22T12:50:54;17.80;99.90
8424;DHT22;4249;49.072;9.770;2022-10-22T12:53:45;17.80;99.90
8424;DHT22;4249;49.072;9.770;2022-10-22T12:56:34;17.90;99.90
8424;DHT22;4249;49.072;9.770;2022-10-22T12:59:24;18.10;99.90
8424;DHT22;4249;49.072;9.770;2022-10-22T13:02:18;18.20;99.90
8424;DHT22;4249;49.072;9.770;2022-10-22T13:05:20;18.30;99.90
8424;DHT22;4249;49.072;9.770;2022-10-22T13:08:09;18.40;99.90
8424;DHT22;4249;49.072;9.770;2022-10-22T13:11:06;18.40;99.90
8424;DHT22;4249;49.072;9.770;2022-10-22T13:14:00;18.50;99.90
8424;DHT22;4249;49.072;9.770;2022-10-22T13:17:06;18.50;99.90
8424;DHT22;4249;49.072;9.770;2022-10-22T13:20:00;18.50;99.90
8424;DHT22;4249;49.072;9.770;2022-10-22T13:22:55;18.60;99.90
8424;DHT22;4249;49.072;9.770;2022-10-22T13:25:56;18.60;99.90
8424;DHT22;4249;49.072;9.770;2022-10-22T13:28:49;18.60;99.90
8424;DHT22;4249;49.072;9.770;2022-10-22T13:31:44;18.70;99.90
8424;DHT22;4249;49.072;9.770;2022-10-22T13:34:32;18.70;99.90
8424;DHT22;4249;49.072;9.770;2022-10-22T13:37:21;18.70;99.90
8424;DHT22;4249;49.072;9.770;2022-10-22T13:40:11;18.70;99.90
8424;DHT22;4249;49.072;9.770;2022-10-22T13:42:58;18.70;99.90
8424;DHT22;4249;49.072;9.770;2022-10-22T13:45:48;18.70;99.90
8424;DHT22;4249;49.072;9.770;2022-10-22T13:48:37;18.80;99.90
8424;DHT22;4249;49.072;9.770;2022-10-22T13:51:28;18.70;99.90
8424;DHT22;4249;49.072;9.770;2022-10-22T13:54:20;18.80;99.90
8424;DHT22;4249;49.072;9.770;2022-10-22T13:57:08;18.70;99.90
8424;DHT22;4249;49.072;9.770;2022-10-22T13:59:56;18.80;99.90
8424;DHT22;4249;49.072;9.770;2022-10-22T14:02:46;18.90;99.90
8424;DHT22;4249;49.072;9.770;2022-10-22T14:05:33;18.90;99.90
8424;DHT22;4249;49.072;9.770;2022-10-22T14:08:22;18.80;99.90
8424;DHT22;4249;49.072;9.770;2022-10-22T14:11:11;18.80;99.90
8424;DHT22;4249;49.072;9.770;2022-10-22T14:13:58;18.80;99.90
8424;DHT22;4249;49.072;9.770;2022-10-22T14:16:45;18.90;99.90
8424;DHT22;4249;49.072;9.770;2022-10-22T14:19:34;18.90;99.90
8424;DHT22;4249;49.072;9.770;2022-10-22T14:22:23;19.00;99.90
8424;DHT22;4249;49.072;9.770;2022-10-22T14:25:15;18.90;99.90
8424;DHT22;4249;49.072;9.770;2022-10-22T14:28:02;18.80;99.90
8424;DHT22;4249;49.072;9.770;2022-10-22T14:30:50;18.70;99.90
8424;DHT22;4249;49.072;9.770;2022-10-22T14:33:38;18.60;99.90
8424;DHT22;4249;49.072;9.770;2022-10-22T14:36:27;18.60;99.90
8424;DHT22;4249;49.072;9.770;2022-10-22T14:39:14;18.60;99.90
8424;DHT22;4249;49.072;9.770;2022-10-22T14:42:03;18.70;99.90
8424;DHT22;4249;49.072;9.770;2022-10-22T14:44:50;18.70;99.90
8424;DHT22;4249;49.072;9.770;2022-10-22T14:47:37;18.70;99.90
8424;DHT22;4249;49.072;9.770;2022-10-22T14:50:24;18.60;99.90
8424;DHT22;4249;49.072;9.770;2022-10-22T14:53:13;18.50;99.90
8424;DHT22;4249;49.072;9.770;2022-10-22T14:56:01;18.50;99.90
8424;DHT22;4249;49.072;9.770;2022-10-22T14:58:48;18.40;99.90
8424;DHT22;4249;49.072;9.770;2022-10-22T15:01:38;18.30;99.90
8424;DHT22;4249;49.072;9.770;2022-10-22T15:04:26;18.20;99.90
8424;DHT22;4249;49.072;9.770;2022-10-22T15:07:15;18.10;99.90
8424;DHT22;4249;49.072;9.770;2022-10-22T15:10:05;18.00;99.90
8424;DHT22;4249;49.072;9.770;2022-10-22T15:12:53;17.90;99.90
8424;DHT22;4249;49.072;9.770;2022-10-22T15:15:40;17.90;99.90
8424;DHT22;4249;49.072;9.770;2022-10-22T15:18:27;17.80;99.90
8424;DHT22;4249;49.072;9.770;2022-10-22T15:21:16;17.80;99.90
8424;DHT22;4249;49.072;9.770;2022-10-22T15:24:04;17.80;99.90
8424;DHT22;4249;49.072;9.770;2022-10-22T15:26:53;17.70;99.90
8424;DHT22;4249;49.072;9.770;2022-10-22T15:29:41;17.70;99.90
8424;DHT22;4249;49.072;9.770;2022-10-22T15:32:28;17.60;99.90
8424;DHT22;4249;49.072;9.770;2022-10-22T15:35:17;17.40;99.90
8424;DHT22;4249;49.072;9.770;2022-10-22T15:38:04;17.30;99.90
8424;DHT22;4249;49.072;9.770;2022-10-22T15:40:59;17.10;99.90
8424;DHT22;4249;49.072;9.770;2022-10-22T15:43:48;17.00;99.90
8424;DHT22;4249;49.072;9.770;2022-10-22T15:46:35;16.90;99.90
8424;DHT22;4249;49.072;9.770;2022-10-22T15:49:23;16.80;99.90
8424;DHT22;4249;49.072;9.770;2022-10-22T15:52:11;16.70;99.90
8424;DHT22;4249;49.072;9.770;2022-10-22T15:54:58;16.60;99.90
8424;DHT22;4249;49.072;9.770;2022-10-22T15:57:48;16.40;99.90
8424;DHT22;4249;49.072;9.770;2022-10-22T16:00:41;16.20;99.90
8424;DHT22;4249;49.072;9.770;2022-10-22T16:03:28;16.00;99.90
8424;DHT22;4249;49.072;9.770;2022-10-22T16:06:15;15.70;1.00
8424;DHT22;4249;49.072;9.770;2022-10-22T16:09:04;15.50;1.00
8424;DHT22;4249;49.072;9.770;2022-10-22T16:11:54;15.30;1.00
8424;DHT22;4249;49.072;9.770;2022-10-22T16:14:41;15.10;1.00
8424;DHT22;4249;49.072;9.770;2022-10-22T16:17:30;14.90;99.90
8424;DHT22;4249;49.072;9.770;2022-10-22T16:20:17;14.80;1.00
8424;DHT22;4249;49.072;9.770;2022-10-22T16:23:04;14.70;1.00
8424;DHT22;4249;49.072;9.770;2022-10-22T16:25:51;14.60;1.00
8424;DHT22;4249;49.072;9.770;2022-10-22T16:28:39;14.60;1.00
8424;DHT22;4249;49.072;9.770;2022-10-22T16:31:27;14.50;1.00
8424;DHT22;4249;49.072;9.770;2022-10-22T16:34:15;14.30;99.90
8424;DHT22;4249;49.072;9.770;2022-10-22T16:37:02;14.20;1.00
8424;DHT22;4249;49.072;9.770;2022-10-22T16:39:54;14.10;1.00
8424;DHT22;4249;49.072;9.770;2022-10-22T16:42:41;14.10;1.00
8424;DHT22;4249;49.072;9.770;2022-10-22T16:45:29;14.20;99.90
8424;DHT22;4249;49.072;9.770;2022-10-22T16:48:17;14.20;1.00
8424;DHT22;4249;49.072;9.770;2022-10-22T16:51:08;14.10;1.00
8424;DHT22;4249;49.072;9.770;2022-10-22T16:53:56;14.10;1.00
8424;DHT22;4249;49.072;9.770;2022-10-22T16:56:43;14.10;99.90
8424;DHT22;4249;49.072;9.770;2022-10-22T16:59:30;14.10;99.90
8424;DHT22;4249;49.072;9.770;2022-10-22T17:02:17;13.90;99.90
8424;DHT22;4249;49.072;9.770;2022-10-22T17:05:05;13.80;1.00
8424;DHT22;4249;49.072;9.770;2022-10-22T17:07:54;13.60;1.00
8424;DHT22;4249;49.072;9.770;2022-10-22T17:10:41;13.50;99.90
8424;DHT22;4249;49.072;9.770;2022-10-22T17:13:28;13.50;99.90
8424;DHT22;4249;49.072;9.770;2022-10-22T17:16:18;13.40;99.90
8424;DHT22;4249;49.072;9.770;2022-10-22T17:19:05;13.40;99.90
8424;DHT22;4249;49.072;9.770;2022-10-22T17:21:53;13.30;99.90
8424;DHT22;4249;49.072;9.770;2022-10-22T17:24:41;13.20;99.90
8424;DHT22;4249;49.072;9.770;2022-10-22T17:27:29;13.10;1.00
8424;DHT22;4249;49.072;9.770;2022-10-22T17:30:19;13.00;1.00
8424;DHT22;4249;49.072;9.770;2022-10-22T17:33:08;13.00;1.00
8424;DHT22;4249;49.072;9.770;2022-10-22T17:35:55;12.90;1.00
8424;DHT22;4249;49.072;9.770;2022-10-22T17:38:42;12.80;1.00
8424;DHT22;4249;49.072;9.770;2022-10-22T17:41:34;12.80;1.00
8424;DHT22;4249;49.072;9.770;2022-10-22T17:44:22;12.70;1.00
8424;DHT22;4249;49.072;9.770;2022-10-22T17:47:09;12.70;1.00
8424;DHT22;4249;49.072;9.770;2022-10-22T17:49:56;12.60;1.00
8424;DHT22;4249;49.072;9.770;2022-10-22T17:52:44;12.60;1.00
8424;DHT22;4249;49.072;9.770;2022-10-22T17:55:32;12.60;1.00
8424;DHT22;4249;49.072;9.770;2022-10-22T17:58:20;12.60;1.00
8424;DHT22;4249;49.072;9.770;2022-10-22T18:01:18;12.60;1.00
8424;DHT22;4249;49.072;9.770;2022-10-22T18:04:07;12.60;1.00
8424;DHT22;4249;49.072;9.770;2022-10-22T18:06:56;12.50;1.00
8424;DHT22;4249;49.072;9.770;2022-10-22T18:09:43;12.50;1.00
8424;DHT22;4249;49.072;9.770;2022-10-22T18:12:30;12.50;1.00
8424;DHT22;4249;49.072;9.770;2022-10-22T18:15:19;12.40;1.00
8424;DHT22;4249;49.072;9.770;2022-10-22T18:18:06;12.30;1.00
8424;DHT22;4249;49.072;9.770;2022-10-22T18:20:53;12.30;1.00
8424;DHT22;4249;49.072;9.770;2022-10-22T18:23:41;12.20;1.00
8424;DHT22;4249;49.072;9.770;2022-10-22T18:26:28;12.10;1.00
8424;DHT22;4249;49.072;9.770;2022-10-22T18:29:17;12.10;1.00
8424;DHT22;4249;49.072;9.770;2022-10-22T18:32:06;12.10;1.00
8424;DHT22;4249;49.072;9.770;2022-10-22T18:34:54;12.00;1.00
8424;DHT22;4249;49.072;9.770;2022-10-22T18:37:41;12.00;1.00
8424;DHT22;4249;49.072;9.770;2022-10-22T18:40:28;12.00;1.00